createdAt,value
2022-11-24T00:02:38.506Z,1.15
2022-11-24T00:05:43.049Z,1.42
2022-11-24T00:08:48.301Z,1.30
2022-11-24T00:11:52.655Z,1.45
2022-11-24T00:14:57.502Z,1.42
2022-11-24T00:18:02.246Z,1.63
2022-11-24T00:21:07.348Z,1.10
2022-11-24T00:24:12.574Z,1.20
2022-11-24T00:27:17.471Z,1.30
2022-11-24T00:30:22.263Z,1.40
2022-11-24T00:33:27.003Z,1.80
2022-11-24T00:36:34.408Z,1.50
2022-11-24T00:39:38.982Z,1.02
2022-11-24T00:42:43.640Z,1.08
2022-11-24T00:45:48.338Z,1.60
2022-11-24T00:48:53.998Z,1.50
2022-11-24T00:51:58.666Z,1.40
2022-11-24T00:55:03.246Z,1.02
2022-11-24T00:58:07.696Z,1.08
2022-11-24T01:01:16.246Z,1.17
2022-11-24T01:04:20.869Z,0.90
2022-11-24T01:07:25.817Z,1.00
2022-11-24T01:10:31.315Z,1.20
2022-11-24T01:13:36.487Z,1.50
2022-11-24T01:16:41.043Z,1.15
2022-11-24T01:19:47.227Z,1.58
2022-11-24T01:22:51.746Z,1.27
2022-11-24T01:25:56.735Z,1.17
2022-11-24T01:29:01.705Z,1.30
2022-11-24T01:32:06.460Z,1.45
2022-11-24T01:35:11.217Z,0.93
2022-11-24T01:38:15.822Z,0.98
2022-11-24T01:41:24.275Z,0.82
2022-11-24T01:44:31.606Z,1.38
2022-11-24T01:47:42.656Z,1.20
2022-11-24T01:50:55.814Z,1.40
2022-11-24T01:54:11.315Z,1.30
2022-11-24T01:57:19.261Z,1.00
2022-11-24T02:00:24.170Z,1.02
2022-11-24T02:03:35.002Z,1.30
2022-11-24T02:06:42.935Z,2.10
2022-11-24T02:09:52.858Z,1.30
2022-11-24T02:13:00.487Z,1.00
2022-11-24T02:16:08.581Z,1.27
2022-11-24T02:19:40.260Z,1.05
2022-11-24T02:22:51.061Z,0.98
2022-11-24T02:26:41.808Z,1.05
2022-11-24T02:29:47.940Z,1.10
2022-11-24T02:32:53.015Z,1.00
2022-11-24T02:35:58.015Z,0.95
2022-11-24T02:39:03.167Z,1.40
2022-11-24T02:42:12.101Z,1.60
2022-11-24T02:45:17.265Z,1.20
2022-11-24T02:48:22.310Z,1.45
2022-11-24T02:51:26.584Z,1.08
2022-11-24T02:54:32.375Z,1.10
2022-11-24T02:57:36.974Z,0.95
2022-11-24T03:00:42.025Z,1.50
2022-11-24T03:03:46.760Z,1.45
2022-11-24T03:06:51.535Z,1.55
2022-11-24T03:09:56.246Z,1.38
2022-11-24T03:13:00.722Z,1.50
2022-11-24T03:16:10.000Z,1.20
2022-11-24T03:19:14.694Z,1.08
2022-11-24T03:22:19.620Z,1.45
2022-11-24T03:25:24.619Z,0.95
2022-11-24T03:28:30.872Z,1.17
2022-11-24T03:31:35.837Z,1.10
2022-11-24T03:34:40.393Z,1.73
2022-11-24T03:37:46.336Z,1.13
2022-11-24T03:40:51.044Z,1.20
2022-11-24T03:43:55.851Z,1.08
2022-11-24T03:47:00.551Z,1.27
2022-11-24T03:50:06.693Z,1.13
2022-11-24T03:53:11.159Z,1.10
2022-11-24T03:56:16.606Z,1.05
2022-11-24T03:59:21.111Z,1.50
2022-11-24T04:02:25.901Z,1.10
2022-11-24T04:05:30.617Z,1.30
2022-11-24T04:08:35.511Z,1.40
2022-11-24T04:11:59.059Z,1.10
2022-11-24T04:15:03.981Z,1.63
2022-11-24T04:18:10.259Z,1.40
2022-11-24T04:21:14.638Z,1.23
2022-11-24T04:24:19.020Z,1.13
2022-11-24T04:27:23.624Z,1.42
2022-11-24T04:30:29.268Z,1.33
2022-11-24T04:33:34.040Z,1.23
2022-11-24T04:36:41.000Z,1.52
2022-11-24T04:39:46.315Z,1.05
2022-11-24T04:42:55.213Z,1.17
2022-11-24T04:46:02.836Z,1.52
2022-11-24T04:49:11.577Z,1.20
2022-11-24T04:52:17.780Z,1.00
2022-11-24T04:55:22.343Z,1.00
2022-11-24T04:58:26.734Z,1.10
2022-11-24T05:01:32.028Z,1.15
2022-11-24T05:04:37.267Z,1.20
2022-11-24T05:07:42.088Z,0.98
2022-11-24T05:10:46.821Z,1.40
2022-11-24T05:13:53.531Z,1.00
2022-11-24T05:16:57.880Z,1.13
2022-11-24T05:20:02.678Z,1.48
2022-11-24T05:23:08.514Z,0.80
2022-11-24T05:26:13.552Z,1.00
2022-11-24T05:29:18.275Z,1.23
2022-11-24T05:32:23.005Z,1.33
2022-11-24T05:35:27.462Z,1.52
2022-11-24T05:38:33.432Z,1.42
2022-11-24T05:41:38.085Z,1.00
2022-11-24T05:44:42.478Z,1.42
2022-11-24T05:47:49.771Z,0.93
2022-11-24T05:50:58.636Z,1.50
2022-11-24T05:54:03.553Z,1.10
2022-11-24T05:57:08.269Z,1.10
2022-11-24T06:00:13.679Z,1.40
2022-11-24T06:03:18.024Z,1.33
2022-11-24T06:06:22.665Z,1.15
2022-11-24T06:09:27.547Z,0.90
2022-11-24T06:12:32.297Z,1.00
2022-11-24T06:15:37.786Z,1.02
2022-11-24T06:18:42.392Z,1.00
2022-11-24T06:21:47.072Z,0.70
2022-11-24T06:24:51.763Z,1.08
2022-11-24T06:27:56.311Z,1.02
2022-11-24T06:31:03.691Z,0.85
2022-11-24T06:34:11.541Z,0.80
2022-11-24T06:37:15.997Z,1.13
2022-11-24T06:40:20.607Z,0.70
2022-11-24T06:43:28.287Z,0.85
2022-11-24T06:46:33.062Z,0.93
2022-11-24T06:49:37.843Z,0.90
2022-11-24T06:52:42.341Z,0.80
2022-11-24T06:55:47.718Z,0.70
2022-11-24T06:58:54.212Z,1.00
2022-11-24T07:01:58.819Z,0.68
2022-11-24T07:05:03.563Z,0.80
2022-11-24T07:08:09.318Z,0.80
2022-11-24T07:11:22.945Z,0.70
2022-11-24T07:14:27.275Z,0.85
2022-11-24T07:17:35.175Z,0.90
2022-11-24T07:20:39.692Z,1.08
2022-11-24T07:23:45.170Z,0.90
2022-11-24T07:26:49.842Z,0.90
2022-11-24T07:29:54.588Z,1.20
2022-11-24T07:33:00.906Z,1.27
2022-11-24T07:36:07.273Z,0.80
2022-11-24T07:39:12.197Z,1.13
2022-11-24T07:42:16.746Z,1.08
2022-11-24T07:45:21.581Z,1.48
2022-11-24T07:48:27.074Z,1.27
2022-11-24T07:51:31.556Z,1.55
2022-11-24T07:54:36.256Z,1.88
2022-11-24T07:57:41.156Z,1.60
2022-11-24T08:00:45.920Z,1.50
2022-11-24T08:03:50.391Z,1.63
2022-11-24T08:06:54.983Z,1.70
2022-11-24T08:09:59.778Z,1.70
2022-11-24T08:13:04.272Z,1.85
2022-11-24T08:16:15.043Z,1.55
2022-11-24T08:19:19.572Z,2.00
2022-11-24T08:22:23.927Z,1.70
2022-11-24T08:25:32.983Z,2.03
2022-11-24T08:28:38.294Z,1.83
2022-11-24T08:31:42.905Z,1.98
2022-11-24T08:34:47.544Z,2.78
2022-11-24T08:37:52.106Z,2.45
2022-11-24T08:41:01.823Z,2.08
2022-11-24T08:44:08.197Z,2.03
2022-11-24T08:47:12.711Z,2.80
2022-11-24T08:50:17.634Z,1.92
2022-11-24T08:53:22.294Z,2.00
2022-11-24T08:56:32.710Z,2.30
2022-11-24T08:59:37.571Z,2.35
2022-11-24T09:02:42.975Z,1.80
2022-11-24T09:05:52.137Z,2.47
2022-11-24T09:08:58.811Z,2.10
2022-11-24T09:12:03.433Z,1.60
2022-11-24T09:15:08.768Z,1.70
2022-11-24T09:18:13.614Z,2.33
2022-11-24T09:21:21.164Z,1.45
2022-11-24T09:24:25.861Z,1.35
2022-11-24T09:27:30.391Z,1.50
2022-11-24T09:30:35.280Z,1.50
2022-11-24T09:33:41.410Z,1.40
2022-11-24T09:36:46.040Z,1.40
2022-11-24T09:39:50.633Z,1.42
2022-11-24T09:43:12.488Z,1.30
2022-11-24T09:47:06.301Z,1.17
2022-11-24T09:50:37.743Z,1.27
2022-11-24T09:54:03.144Z,1.50
2022-11-24T09:57:11.795Z,1.60
2022-11-24T10:00:17.232Z,0.93
2022-11-24T10:03:43.916Z,1.30
2022-11-24T10:07:09.357Z,1.48
2022-11-24T10:10:25.357Z,1.30
2022-11-24T10:13:57.744Z,1.30
2022-11-24T10:17:30.292Z,1.00
2022-11-24T10:20:53.591Z,1.17
2022-11-24T10:24:21.267Z,0.90
2022-11-24T10:27:41.740Z,0.85
2022-11-24T10:30:46.756Z,1.10
2022-11-24T10:33:51.523Z,1.10
2022-11-24T10:37:11.225Z,1.02
2022-11-24T10:41:00.925Z,0.95
2022-11-24T10:44:12.476Z,1.13
2022-11-24T10:47:22.916Z,0.98
2022-11-24T10:50:39.393Z,1.00
2022-11-24T10:53:45.002Z,1.58
2022-11-24T10:56:55.406Z,1.10
2022-11-24T11:00:02.277Z,1.20
2022-11-24T11:03:33.068Z,1.13
2022-11-24T11:06:38.094Z,1.60
2022-11-24T11:09:42.794Z,1.58
2022-11-24T11:12:47.577Z,1.35
2022-11-24T11:15:52.287Z,0.82
2022-11-24T11:18:56.877Z,1.30
2022-11-24T11:22:11.071Z,1.55
2022-11-24T11:25:36.245Z,1.30
2022-11-24T11:28:40.723Z,1.55
2022-11-24T11:35:40.647Z,1.08
2022-11-24T11:38:47.102Z,1.45
2022-11-24T11:42:25.755Z,1.30
2022-11-24T11:45:46.132Z,1.10
2022-11-24T11:48:50.798Z,2.05
2022-11-24T11:52:24.619Z,1.65
2022-11-24T11:56:28.344Z,1.77
2022-11-24T12:00:07.757Z,1.05
2022-11-24T12:03:47.010Z,1.23
2022-11-24T12:07:15.970Z,1.25
2022-11-24T12:11:08.096Z,1.60
2022-11-24T12:14:21.438Z,1.83
2022-11-24T12:17:33.404Z,1.10
2022-11-24T12:21:02.817Z,1.13
2022-11-24T12:25:01.122Z,1.48
2022-11-24T12:28:53.727Z,1.40
2022-11-24T12:32:57.548Z,1.20
2022-11-24T12:36:32.235Z,1.65
2022-11-24T12:39:50.928Z,1.70
2022-11-24T12:43:35.505Z,1.05
2022-11-24T12:46:57.797Z,1.40
2022-11-24T12:50:15.830Z,1.35
2022-11-24T12:53:33.917Z,1.20
2022-11-24T12:56:49.795Z,1.30
2022-11-24T13:00:23.081Z,1.77
2022-11-24T13:04:18.327Z,1.02
2022-11-24T13:07:45.629Z,1.23
2022-11-24T13:10:58.164Z,1.40
2022-11-24T13:14:15.545Z,1.70
2022-11-24T13:17:50.202Z,1.60
2022-11-24T13:20:59.151Z,1.60
2022-11-24T13:24:27.137Z,1.30
2022-11-24T13:27:45.654Z,1.40
2022-11-24T13:30:55.239Z,1.23
2022-11-24T13:34:00.230Z,1.08
2022-11-24T13:37:34.753Z,1.80
2022-11-24T13:40:59.882Z,2.42
2022-11-24T13:44:13.762Z,1.50
2022-11-24T13:47:37.944Z,1.35
2022-11-24T13:50:52.158Z,1.58
2022-11-24T13:54:00.055Z,1.33
2022-11-24T13:57:38.294Z,1.13
2022-11-24T14:01:19.567Z,1.45
2022-11-24T14:07:52.647Z,1.00
2022-11-24T14:11:00.531Z,1.20
2022-11-24T14:14:20.669Z,1.27
2022-11-24T14:17:28.102Z,0.95
2022-11-24T14:20:32.554Z,1.10
2022-11-24T14:23:44.022Z,1.30
2022-11-24T14:26:49.758Z,1.67
2022-11-24T14:30:01.391Z,1.13
2022-11-24T14:33:16.703Z,1.05
2022-11-24T14:36:21.178Z,1.10
2022-11-24T14:39:27.823Z,1.15
2022-11-24T14:42:33.314Z,1.45
2022-11-24T14:45:38.035Z,1.30
2022-11-24T14:48:53.805Z,1.23
2022-11-24T14:52:09.259Z,1.15
2022-11-24T14:55:24.869Z,0.95
2022-11-24T14:58:34.587Z,1.20
2022-11-24T15:01:41.085Z,0.90
2022-11-24T15:05:03.111Z,1.17
2022-11-24T15:08:13.644Z,1.00
2022-11-24T15:11:19.843Z,1.33
2022-11-24T15:14:44.166Z,0.93
2022-11-24T15:17:58.609Z,1.23
2022-11-24T15:21:03.601Z,1.35
2022-11-24T15:24:18.639Z,1.35
2022-11-24T15:27:22.916Z,1.10
2022-11-24T15:30:29.255Z,0.93
2022-11-24T15:33:33.718Z,1.10
2022-11-24T15:36:38.062Z,1.38
2022-11-24T15:39:42.538Z,1.30
2022-11-24T15:42:55.263Z,0.82
2022-11-24T15:46:02.702Z,1.00
2022-11-24T15:49:07.417Z,1.08
2022-11-24T15:52:15.199Z,1.27
2022-11-24T15:55:22.059Z,1.00
2022-11-24T15:58:26.739Z,1.20
2022-11-24T16:01:33.627Z,1.10
2022-11-24T16:04:41.530Z,1.30
2022-11-24T16:07:46.443Z,1.05
2022-11-24T16:10:51.346Z,0.93
2022-11-24T16:13:55.788Z,1.52
2022-11-24T16:17:01.240Z,1.20
2022-11-24T16:20:07.589Z,1.02
2022-11-24T16:23:12.263Z,0.90
2022-11-24T16:26:16.688Z,1.00
2022-11-24T16:29:23.640Z,1.40
2022-11-24T16:32:28.484Z,1.08
2022-11-24T16:35:34.032Z,1.10
2022-11-24T16:38:38.678Z,1.02
2022-11-24T16:41:43.522Z,1.15
2022-11-24T16:44:48.096Z,1.20
2022-11-24T16:47:52.453Z,1.25
2022-11-24T16:51:03.533Z,1.10
2022-11-24T16:54:08.955Z,1.35
2022-11-24T16:57:15.306Z,1.30
2022-11-24T17:00:20.143Z,1.42
2022-11-24T17:03:24.837Z,1.50
2022-11-24T17:06:29.748Z,1.10
2022-11-24T17:09:40.124Z,1.17
2022-11-24T17:12:45.303Z,1.10
2022-11-24T17:15:54.161Z,1.33
2022-11-24T17:18:59.787Z,1.70
2022-11-24T17:22:04.186Z,1.60
2022-11-24T17:25:09.020Z,1.25
2022-11-24T17:28:13.223Z,1.25
2022-11-24T17:31:25.366Z,1.25
2022-11-24T17:34:29.999Z,1.10
2022-11-24T17:37:37.013Z,2.05
2022-11-24T17:40:47.978Z,1.60
2022-11-24T17:43:58.212Z,2.47
2022-11-24T17:47:03.130Z,4.20
2022-11-24T17:50:07.897Z,5.30
2022-11-24T17:53:12.710Z,4.78
2022-11-24T17:56:22.933Z,3.90
2022-11-24T17:59:27.562Z,2.40
2022-11-24T18:02:32.323Z,2.40
2022-11-24T18:05:37.678Z,1.83
2022-11-24T18:08:45.955Z,1.38
2022-11-24T18:11:51.979Z,1.25
2022-11-24T18:14:56.719Z,1.85
2022-11-24T18:18:02.967Z,1.55
2022-11-24T18:21:13.990Z,1.30
2022-11-24T18:24:23.936Z,1.40
2022-11-24T18:27:29.109Z,1.35
2022-11-24T18:30:34.214Z,1.40
2022-11-24T18:33:40.613Z,1.30
2022-11-24T18:36:47.437Z,1.50
2022-11-24T18:39:52.182Z,1.67
2022-11-24T18:42:57.005Z,1.40
2022-11-24T18:46:14.531Z,1.48
2022-11-24T18:49:19.174Z,1.55
2022-11-24T18:52:23.808Z,1.48
2022-11-24T18:55:28.129Z,1.58
2022-11-24T18:58:34.784Z,1.60
2022-11-24T19:01:39.353Z,1.20
2022-11-24T19:04:44.092Z,1.63
2022-11-24T19:07:48.798Z,1.73
2022-11-24T19:10:53.487Z,1.48
2022-11-24T19:13:58.241Z,2.20
2022-11-24T19:17:04.722Z,1.50
2022-11-24T19:20:09.637Z,1.30
2022-11-24T19:23:14.121Z,1.27
2022-11-24T19:26:19.457Z,1.10
2022-11-24T19:29:24.307Z,1.58
2022-11-24T19:32:31.785Z,1.40
2022-11-24T19:35:36.557Z,1.42
2022-11-24T19:38:43.211Z,1.58
2022-11-24T19:41:47.378Z,1.42
2022-11-24T19:44:56.358Z,1.52
2022-11-24T19:48:00.991Z,1.23
2022-11-24T19:51:08.630Z,1.27
2022-11-24T19:54:13.363Z,2.13
2022-11-24T19:57:18.157Z,1.38
2022-11-24T20:00:22.977Z,1.67
2022-11-24T20:03:27.553Z,2.30
2022-11-24T20:06:36.713Z,2.55
2022-11-24T20:09:41.328Z,3.50
2022-11-24T20:12:46.122Z,3.35
2022-11-24T20:15:50.827Z,2.92
2022-11-24T20:18:58.974Z,2.80
2022-11-24T20:22:03.667Z,1.85
2022-11-24T20:25:10.833Z,1.27
2022-11-24T20:28:15.155Z,1.58
2022-11-24T20:31:23.932Z,1.40
2022-11-24T20:34:28.945Z,1.50
2022-11-24T20:37:33.594Z,1.92
2022-11-24T20:40:38.190Z,1.25
2022-11-24T20:43:44.707Z,1.30
2022-11-24T20:46:49.841Z,1.10
2022-11-24T20:49:54.372Z,1.42
2022-11-24T20:52:59.001Z,1.23
2022-11-24T20:56:07.310Z,1.35
2022-11-24T20:59:21.344Z,1.10
2022-11-24T21:02:26.482Z,1.40
2022-11-24T21:05:31.039Z,1.30
2022-11-24T21:08:37.419Z,1.27
2022-11-24T21:11:42.127Z,1.27
2022-11-24T21:14:46.801Z,1.15
2022-11-24T21:17:50.985Z,1.10
2022-11-24T21:20:55.534Z,1.60
2022-11-24T21:24:13.225Z,1.60
2022-11-24T21:27:17.711Z,1.48
2022-11-24T21:30:22.063Z,1.50
2022-11-24T21:33:26.524Z,1.67
2022-11-24T21:36:33.059Z,1.13
2022-11-24T21:39:37.829Z,1.77
2022-11-24T21:42:42.533Z,1.95
2022-11-24T21:45:46.798Z,1.48
2022-11-24T21:48:51.453Z,1.27
2022-11-24T21:51:56.636Z,1.00
2022-11-24T21:55:01.527Z,1.25
2022-11-24T21:58:06.906Z,1.05
2022-11-24T22:01:12.500Z,1.50
2022-11-24T22:04:17.283Z,1.60
2022-11-24T22:07:22.177Z,1.42
2022-11-24T22:10:26.780Z,1.30
2022-11-24T22:13:32.229Z,1.13
2022-11-24T22:16:37.447Z,1.63
2022-11-24T22:19:42.110Z,1.20
2022-11-24T22:22:46.823Z,1.67
2022-11-24T22:25:51.295Z,1.30
2022-11-24T22:28:57.831Z,1.52
2022-11-24T22:32:02.504Z,1.45
2022-11-24T22:35:07.929Z,1.27
2022-11-24T22:38:12.581Z,1.38
2022-11-24T22:41:18.136Z,1.02
2022-11-24T22:44:22.886Z,1.13
2022-11-24T22:47:27.519Z,1.20
2022-11-24T22:50:32.061Z,1.23
2022-11-24T22:53:38.107Z,1.17
2022-11-24T22:56:42.867Z,2.33
2022-11-24T22:59:47.616Z,1.80
2022-11-24T23:02:54.017Z,1.38
2022-11-24T23:06:04.118Z,1.30
2022-11-24T23:09:12.048Z,1.00
2022-11-24T23:12:16.905Z,1.17
2022-11-24T23:15:21.787Z,1.40
2022-11-24T23:18:26.535Z,2.13
2022-11-24T23:21:35.124Z,1.60
2022-11-24T23:24:39.851Z,1.83
2022-11-24T23:27:44.332Z,1.60
2022-11-24T23:30:49.418Z,2.30
2022-11-24T23:33:55.496Z,1.73
2022-11-24T23:37:00.287Z,1.23
2022-11-24T23:40:05.645Z,1.50
2022-11-24T23:43:09.998Z,1.95
2022-11-24T23:46:21.241Z,1.30
2022-11-24T23:49:25.742Z,1.30
2022-11-24T23:52:30.676Z,1.20
2022-11-24T23:55:36.488Z,1.05
2022-11-24T23:58:41.570Z,1.20
